Time;durP1;ratioP1;P1;durP2;ratioP2;P2;SDS_P1;SDS_P2;PMS_P1;PMS_P2;Temp;Humidity;BMP_temperature;BMP_pressure;BME280_temperature;BME280_humidity;BME280_pressure;Samples;Min_cycle;Max_cycle;Signal;HPM_P1;HPM_P2
2022/01/17 00:00:52;;;;;;;14.48;2.17;;;;;;;;;;5037078;28;20076;-68
2022/01/17 00:03:24;;;;;;;14.10;1.63;;;;;;;;;;5053544;28;20095;-68
2022/01/17 00:05:50;;;;;;;13.43;1.58;;;;;;;;;;5054827;28;20439;-67
2022/01/17 00:08:16;;;;;;;11.43;1.40;;;;;;;;;;5051566;28;20052;-67
2022/01/17 00:10:42;;;;;;;12.38;1.70;;;;;;;;;;5046111;28;20033;-67
2022/01/17 00:13:10;;;;;;;14.85;1.95;;;;;;;;;;5049795;28;20055;-67
2022/01/17 00:15:49;;;;;;;15.90;1.73;;;;;;;;;;5032746;28;20052;-67
2022/01/17 00:20:45;;;;;;;17.00;2.05;;;;;;;;;;5053130;28;20132;-67
2022/01/17 00:23:11;;;;;;;13.07;2.08;;;;;;;;;;5054310;28;20051;-67
2022/01/17 00:25:37;;;;;;;14.00;1.70;;;;;;;;;;5053138;28;20531;-67
2022/01/17 00:28:03;;;;;;;18.88;2.13;;;;;;;;;;5052928;28;20041;-67
2022/01/17 00:30:29;;;;;;;12.65;2.58;;;;;;;;;;5054348;28;20055;-67
2022/01/17 00:32:55;;;;;;;11.90;2.35;;;;;;;;;;5036753;28;20102;-67
2022/01/17 00:35:21;;;;;;;11.05;1.85;;;;;;;;;;5051537;28;20057;-67
2022/01/17 00:37:48;;;;;;;14.05;1.88;;;;;;;;;;5016538;28;20057;-67
2022/01/17 00:40:15;;;;;;;14.93;1.90;;;;;;;;;;5032994;28;20515;-67
2022/01/17 00:42:42;;;;;;;12.70;1.80;;;;;;;;;;5032971;28;20115;-67
2022/01/17 00:45:08;;;;;;;14.05;1.85;;;;;;;;;;5034303;28;20045;-67
2022/01/17 00:47:35;;;;;;;11.93;1.95;;;;;;;;;;5034240;28;20041;-67
2022/01/17 00:50:01;;;;;;;19.60;2.38;;;;;;;;;;5034096;28;20046;-67
2022/01/17 00:52:27;;;;;;;15.32;2.20;;;;;;;;;;5032911;28;20060;-67
2022/01/17 00:54:53;;;;;;;15.57;1.60;;;;;;;;;;5032538;28;20400;-67
2022/01/17 00:57:19;;;;;;;17.08;1.55;;;;;;;;;;5033627;28;20359;-67
2022/01/17 00:59:45;;;;;;;14.60;2.53;;;;;;;;;;5032447;28;20046;-67
2022/01/17 01:02:11;;;;;;;27.17;3.80;;;;;;;;;;5032583;28;20124;-67
2022/01/17 01:04:37;;;;;;;16.83;2.47;;;;;;;;;;5033614;28;20405;-67
2022/01/17 01:07:03;;;;;;;16.55;1.90;;;;;;;;;;5033678;28;20045;-67
2022/01/17 01:09:36;;;;;;;11.82;1.95;;;;;;;;;;5033663;28;20083;-67
2022/01/17 01:12:02;;;;;;;14.35;2.00;;;;;;;;;;5033772;28;20116;-67
2022/01/17 01:14:28;;;;;;;10.50;1.83;;;;;;;;;;5015930;28;20037;-67
2022/01/17 01:16:56;;;;;;;20.35;2.40;;;;;;;;;;5033418;28;20431;-67
2022/01/17 01:30:06;;;;;;;22.13;3.03;;;;;;;;;;5033110;28;20049;-67
2022/01/17 01:32:40;;;;;;;16.60;2.95;;;;;;;;;;5032939;28;20492;-67
2022/01/17 01:35:10;;;;;;;13.77;2.00;;;;;;;;;;5033142;28;20065;-68
2022/01/17 01:37:36;;;;;;;16.52;2.05;;;;;;;;;;5031536;28;20454;-67
2022/01/17 01:40:02;;;;;;;21.73;2.58;;;;;;;;;;5015515;28;20071;-68
2022/01/17 01:42:30;;;;;;;21.65;4.07;;;;;;;;;;5032049;28;20183;-67
2022/01/17 01:44:56;;;;;;;18.00;2.90;;;;;;;;;;5033186;28;20503;-68
2022/01/17 01:47:24;;;;;;;13.98;1.70;;;;;;;;;;5032956;28;20072;-68
2022/01/17 01:49:50;;;;;;;60.30;10.07;;;;;;;;;;5031909;28;20092;-68
2022/01/17 01:52:16;;;;;;;18.77;2.33;;;;;;;;;;5032020;28;20136;-67
2022/01/17 01:54:42;;;;;;;11.73;1.80;;;;;;;;;;5015630;28;20531;-67
2022/01/17 01:57:08;;;;;;;13.13;1.88;;;;;;;;;;5032936;28;20533;-67
2022/01/17 01:59:34;;;;;;;17.08;1.80;;;;;;;;;;5031682;28;20049;-68
2022/01/17 02:02:00;;;;;;;16.40;2.38;;;;;;;;;;5032833;28;20120;-68
2022/01/17 02:04:26;;;;;;;17.50;2.15;;;;;;;;;;5033029;28;20076;-68
2022/01/17 02:06:52;;;;;;;16.35;1.88;;;;;;;;;;5031480;28;20052;-68
2022/01/17 02:09:18;;;;;;;16.70;2.55;;;;;;;;;;5031499;28;20045;-68
2022/01/17 02:11:44;;;;;;;19.17;2.20;;;;;;;;;;5031441;28;20049;-68
2022/01/17 02:14:10;;;;;;;16.17;1.98;;;;;;;;;;5032741;28;20049;-68
2022/01/17 02:16:38;;;;;;;16.05;1.90;;;;;;;;;;5032789;28;20080;-69
2022/01/17 02:19:04;;;;;;;16.00;2.17;;;;;;;;;;5033041;28;20480;-68
2022/01/17 02:21:48;;;;;;;14.23;1.88;;;;;;;;;;5032677;28;20045;-68
2022/01/17 02:24:16;;;;;;;24.10;2.08;;;;;;;;;;5014940;28;20045;-68
2022/01/17 02:26:42;;;;;;;15.35;2.05;;;;;;;;;;5031374;28;20041;-68
2022/01/17 02:29:08;;;;;;;17.63;2.05;;;;;;;;;;5032357;28;20056;-68
2022/01/17 02:31:34;;;;;;;15.20;1.88;;;;;;;;;;5031601;28;20111;-68
2022/01/17 02:34:03;;;;;;;17.65;2.17;;;;;;;;;;5031126;28;20084;-68
2022/01/17 02:36:29;;;;;;;17.23;2.35;;;;;;;;;;5032668;28;20088;-68
2022/01/17 02:38:55;;;;;;;18.77;2.75;;;;;;;;;;5032808;28;20046;-68
2022/01/17 02:41:21;;;;;;;21.88;3.08;;;;;;;;;;5031375;28;20046;-68
2022/01/17 02:43:47;;;;;;;19.92;2.45;;;;;;;;;;5031494;28;20128;-68
2022/01/17 02:48:40;;;;;;;17.42;2.47;;;;;;;;;;5032529;28;20057;-68
2022/01/17 02:51:07;;;;;;;17.45;2.20;;;;;;;;;;5034720;28;20449;-68
2022/01/17 02:53:33;;;;;;;19.67;2.70;;;;;;;;;;5034840;28;20049;-68
2022/01/17 02:56:00;;;;;;;13.80;1.92;;;;;;;;;;5035829;28;20048;-68
2022/01/17 02:58:28;;;;;;;16.23;2.33;;;;;;;;;;5034791;28;20057;-68
2022/01/17 03:00:56;;;;;;;18.52;2.58;;;;;;;;;;5036018;28;20041;-68
2022/01/17 03:03:23;;;;;;;15.88;2.00;;;;;;;;;;5035942;28;20042;-68
2022/01/17 03:05:49;;;;;;;19.23;2.55;;;;;;;;;;5034752;28;20048;-68
2022/01/17 03:08:20;;;;;;;18.00;2.45;;;;;;;;;;5035928;28;20034;-68
2022/01/17 03:10:49;;;;;;;19.48;2.03;;;;;;;;;;5034456;28;20053;-68
2022/01/17 03:13:17;;;;;;;11.55;2.08;;;;;;;;;;5035594;28;20050;-68
2022/01/17 03:15:44;;;;;;;15.05;2.30;;;;;;;;;;5035824;28;20045;-68
2022/01/17 03:18:10;;;;;;;16.05;2.03;;;;;;;;;;5035673;28;20056;-68
2022/01/17 03:20:39;;;;;;;20.38;2.42;;;;;;;;;;5035705;28;20045;-68
2022/01/17 03:23:06;;;;;;;21.45;2.28;;;;;;;;;;5034365;28;20057;-68
2022/01/17 03:25:32;;;;;;;13.15;1.60;;;;;;;;;;5035648;28;20450;-68
2022/01/17 03:27:59;;;;;;;20.25;2.40;;;;;;;;;;5034357;28;20095;-68
2022/01/17 03:30:26;;;;;;;18.75;2.10;;;;;;;;;;5017783;28;20399;-68
2022/01/17 03:32:52;;;;;;;16.98;1.45;;;;;;;;;;5035532;28;20073;-67
2022/01/17 03:35:18;;;;;;;15.15;2.30;;;;;;;;;;5035455;28;20476;-68
2022/01/17 03:37:44;;;;;;;15.15;1.67;;;;;;;;;;5035437;28;20052;-67
2022/01/17 03:40:11;;;;;;;12.32;2.00;;;;;;;;;;5033997;28;20060;-67
2022/01/17 03:42:37;;;;;;;17.77;2.53;;;;;;;;;;5017500;28;20048;-68
2022/01/17 03:45:07;;;;;;;18.85;1.90;;;;;;;;;;5033833;28;20403;-68
2022/01/17 03:47:34;;;;;;;11.75;2.10;;;;;;;;;;5035142;28;20045;-68
2022/01/17 03:50:00;;;;;;;15.88;2.35;;;;;;;;;;5034985;28;20228;-68
2022/01/17 03:52:26;;;;;;;14.27;1.80;;;;;;;;;;5033753;28;20046;-68
2022/01/17 03:54:52;;;;;;;19.00;3.03;;;;;;;;;;5035032;28;20053;-68
2022/01/17 03:57:18;;;;;;;14.98;2.28;;;;;;;;;;5034925;28;20439;-68
2022/01/17 03:59:44;;;;;;;17.85;2.08;;;;;;;;;;5034794;28;20042;-68
2022/01/17 04:02:10;;;;;;;18.23;2.30;;;;;;;;;;5016390;28;20049;-68
2022/01/17 04:04:36;;;;;;;18.38;2.38;;;;;;;;;;5017113;28;20095;-68
2022/01/17 04:07:02;;;;;;;20.38;2.70;;;;;;;;;;5034686;28;20053;-68
2022/01/17 04:09:28;;;;;;;14.95;1.90;;;;;;;;;;5034728;28;20077;-68
2022/01/17 04:11:54;;;;;;;15.98;2.25;;;;;;;;;;5034823;28;20452;-67
2022/01/17 04:14:20;;;;;;;14.45;1.85;;;;;;;;;;5033319;28;20054;-68
2022/01/17 04:16:46;;;;;;;13.15;1.65;;;;;;;;;;5034569;28;20053;-68
2022/01/17 04:19:13;;;;;;;16.30;2.00;;;;;;;;;;5033313;28;20060;-68
2022/01/17 04:21:39;;;;;;;13.90;2.08;;;;;;;;;;5034772;28;20121;-68
2022/01/17 04:24:05;;;;;;;23.45;3.40;;;;;;;;;;5033383;28;20127;-68
2022/01/17 04:26:30;;;;;;;19.63;1.95;;;;;;;;;;5033142;28;20081;-68
2022/01/17 04:28:56;;;;;;;19.63;2.30;;;;;;;;;;5034391;28;20049;-68
2022/01/17 04:31:22;;;;;;;13.13;2.03;;;;;;;;;;5032935;28;20496;-67
2022/01/17 04:33:49;;;;;;;16.00;2.55;;;;;;;;;;5033832;28;20084;-68
2022/01/17 04:36:15;;;;;;;14.50;2.10;;;;;;;;;;5016340;28;20053;-68
2022/01/17 04:38:41;;;;;;;10.30;1.70;;;;;;;;;;5032885;28;20407;-68
2022/01/17 04:41:18;;;;;;;15.98;2.05;;;;;;;;;;5033177;28;20451;-68
2022/01/17 04:46:11;;;;;;;15.13;2.90;;;;;;;;;;5034071;28;20136;-68
2022/01/17 04:48:38;;;;;;;14.40;2.53;;;;;;;;;;5033731;28;20479;-68
2022/01/17 04:51:05;;;;;;;20.88;2.75;;;;;;;;;;5033768;28;20397;-68
2022/01/17 04:53:31;;;;;;;13.38;2.10;;;;;;;;;;5016037;28;20492;-68
2022/01/17 04:55:58;;;;;;;21.67;2.33;;;;;;;;;;5033887;28;20077;-68
2022/01/17 04:58:24;;;;;;;13.57;1.90;;;;;;;;;;5032431;28;20084;-67
2022/01/17 05:00:50;;;;;;;17.17;2.03;;;;;;;;;;5033569;28;20041;-67
2022/01/17 05:03:17;;;;;;;10.52;1.63;;;;;;;;;;5033874;28;20046;-67
2022/01/17 05:05:43;;;;;;;14.73;2.15;;;;;;;;;;5032496;28;20045;-68
2022/01/17 05:08:09;;;;;;;14.48;1.80;;;;;;;;;;5033624;28;20041;-67
2022/01/17 05:10:35;;;;;;;12.63;1.73;;;;;;;;;;5032144;28;20492;-67
2022/01/17 05:13:02;;;;;;;12.70;1.98;;;;;;;;;;5015028;28;20045;-67
2022/01/17 05:15:46;;;;;;;14.20;2.17;;;;;;;;;;5015733;28;20049;-67
2022/01/17 05:18:25;;;;;;;16.65;2.00;;;;;;;;;;5032149;28;20537;-67
2022/01/17 05:20:51;;;;;;;15.65;1.77;;;;;;;;;;5016323;28;20119;-68
2022/01/17 05:23:17;;;;;;;16.17;2.20;;;;;;;;;;5032363;28;20045;-68
2022/01/17 05:25:43;;;;;;;15.02;2.13;;;;;;;;;;5031936;28;20459;-68
2022/01/17 05:28:09;;;;;;;20.35;2.63;;;;;;;;;;5031874;28;20045;-67
2022/01/17 05:30:35;;;;;;;10.70;2.20;;;;;;;;;;5031646;28;20111;-67
2022/01/17 05:33:01;;;;;;;17.08;2.63;;;;;;;;;;5032066;28;20073;-67
2022/01/17 05:35:27;;;;;;;15.43;2.40;;;;;;;;;;5032797;28;20053;-68
2022/01/17 05:37:53;;;;;;;20.63;3.67;;;;;;;;;;5015536;28;20076;-67
2022/01/17 05:40:19;;;;;;;13.02;1.75;;;;;;;;;;5032101;28;20053;-68
2022/01/17 05:42:45;;;;;;;17.85;2.60;;;;;;;;;;5032000;28;20053;-68
2022/01/17 05:45:12;;;;;;;15.05;1.92;;;;;;;;;;5032962;28;20046;-67
2022/01/17 05:47:38;;;;;;;15.40;2.17;;;;;;;;;;5015076;28;20041;-67
2022/01/17 05:50:05;;;;;;;15.77;2.50;;;;;;;;;;5031686;28;20469;-68
2022/01/17 05:52:31;;;;;;;14.25;2.40;;;;;;;;;;5033077;28;20041;-68
2022/01/17 05:54:58;;;;;;;21.60;3.00;;;;;;;;;;5031578;28;20077;-68
2022/01/17 05:57:24;;;;;;;15.55;2.50;;;;;;;;;;5032869;28;20423;-67
2022/01/17 05:59:50;;;;;;;14.38;3.35;;;;;;;;;;5031442;28;20111;-68
2022/01/17 06:02:16;;;;;;;19.60;2.97;;;;;;;;;;5031966;28;20057;-67
2022/01/17 06:04:43;;;;;;;17.25;2.67;;;;;;;;;;5032692;28;20088;-67
2022/01/17 06:07:09;;;;;;;16.50;2.67;;;;;;;;;;5031960;28;20443;-67
2022/01/17 06:09:35;;;;;;;22.00;3.67;;;;;;;;;;5032872;28;20080;-67
2022/01/17 06:12:01;;;;;;;12.65;2.10;;;;;;;;;;5032656;28;20128;-67
2022/01/17 06:14:27;;;;;;;19.40;3.50;;;;;;;;;;5032061;28;20049;-67
2022/01/17 06:16:53;;;;;;;16.80;3.05;;;;;;;;;;5032797;28;20475;-67
2022/01/17 06:19:19;;;;;;;21.38;3.55;;;;;;;;;;5033095;28;20053;-67
2022/01/17 06:21:46;;;;;;;20.17;3.78;;;;;;;;;;5032738;28;20045;-68
2022/01/17 06:24:12;;;;;;;18.30;3.13;;;;;;;;;;5033264;28;20505;-67
2022/01/17 06:26:39;;;;;;;22.15;4.30;;;;;;;;;;5035686;28;20379;-68
2022/01/17 06:29:05;;;;;;;20.98;3.33;;;;;;;;;;5036679;28;20064;-67
2022/01/17 06:31:33;;;;;;;18.63;3.05;;;;;;;;;;5036746;28;20042;-67
2022/01/17 06:33:59;;;;;;;17.25;3.00;;;;;;;;;;5034836;28;20496;-67
2022/01/17 06:36:25;;;;;;;15.30;3.50;;;;;;;;;;5036328;28;20049;-67
2022/01/17 06:38:51;;;;;;;19.45;3.40;;;;;;;;;;5018732;28;20381;-67
2022/01/17 06:41:18;;;;;;;15.50;4.50;;;;;;;;;;5018367;28;20128;-68
2022/01/17 06:43:44;;;;;;;18.48;3.85;;;;;;;;;;5036472;28;20037;-68
2022/01/17 06:46:10;;;;;;;25.42;4.25;;;;;;;;;;5035171;28;20049;-68
2022/01/17 06:48:36;;;;;;;18.77;4.05;;;;;;;;;;5035288;28;20060;-68
2022/01/17 06:51:02;;;;;;;32.70;5.40;;;;;;;;;;5034745;28;20067;-68
2022/01/17 06:53:29;;;;;;;17.45;4.25;;;;;;;;;;5036057;28;20041;-68
2022/01/17 06:55:56;;;;;;;24.08;4.35;;;;;;;;;;5035771;28;20049;-68
2022/01/17 06:58:22;;;;;;;19.75;5.03;;;;;;;;;;5036208;28;20050;-68
2022/01/17 07:00:48;;;;;;;31.98;5.80;;;;;;;;;;5035713;28;20046;-67
2022/01/17 07:03:14;;;;;;;21.17;5.90;;;;;;;;;;5034463;28;20125;-67
2022/01/17 07:05:40;;;;;;;42.22;7.95;;;;;;;;;;5034549;28;20614;-67
2022/01/17 07:08:06;;;;;;;21.65;5.43;;;;;;;;;;5035308;28;20127;-67
2022/01/17 07:10:32;;;;;;;26.50;6.70;;;;;;;;;;5034314;28;20048;-67
2022/01/17 07:12:58;;;;;;;39.15;8.32;;;;;;;;;;5034535;28;20469;-67
2022/01/17 07:15:24;;;;;;;28.85;6.60;;;;;;;;;;5035864;28;20049;-67
2022/01/17 07:17:54;;;;;;;34.75;7.47;;;;;;;;;;5034731;28;20064;-67
2022/01/17 07:20:20;;;;;;;30.15;6.57;;;;;;;;;;5035830;28;20507;-67
2022/01/17 07:22:46;;;;;;;26.83;6.85;;;;;;;;;;5034312;28;20034;-67
2022/01/17 07:25:12;;;;;;;21.85;7.47;;;;;;;;;;5035907;28;20037;-67
2022/01/17 07:27:40;;;;;;;30.92;6.63;;;;;;;;;;5035544;28;20124;-67
2022/01/17 07:30:07;;;;;;;64.70;12.90;;;;;;;;;;5035545;28;20052;-67
2022/01/17 07:32:33;;;;;;;38.00;8.68;;;;;;;;;;5034171;28;20088;-67
2022/01/17 07:34:59;;;;;;;51.03;11.35;;;;;;;;;;5033884;28;20058;-67
2022/01/17 07:37:25;;;;;;;46.33;9.73;;;;;;;;;;5034595;28;20053;-67
2022/01/17 07:39:51;;;;;;;42.72;9.88;;;;;;;;;;5035535;28;20175;-68
2022/01/17 07:42:17;;;;;;;23.77;6.43;;;;;;;;;;5034264;28;20049;-67
2022/01/17 07:44:52;;;;;;;75.10;15.70;;;;;;;;;;5035426;28;20045;-66
2022/01/17 07:47:24;;;;;;;58.78;12.93;;;;;;;;;;5035281;28;20049;-67
2022/01/17 07:49:50;;;;;;;27.48;6.38;;;;;;;;;;5034107;28;20052;-68
2022/01/17 07:52:16;;;;;;;36.85;8.10;;;;;;;;;;5035157;28;20124;-67
2022/01/17 07:54:47;;;;;;;34.60;6.50;;;;;;;;;;5017172;28;20037;-68
2022/01/17 07:57:14;;;;;;;39.25;6.70;;;;;;;;;;5035211;28;20072;-67
2022/01/17 07:59:40;;;;;;;40.53;8.00;;;;;;;;;;5033750;28;20085;-68
2022/01/17 08:02:06;;;;;;;21.33;6.07;;;;;;;;;;5034863;28;20516;-67
2022/01/17 08:04:33;;;;;;;58.00;10.63;;;;;;;;;;5017266;28;20072;-66
2022/01/17 08:06:59;;;;;;;52.35;9.35;;;;;;;;;;5033758;28;20107;-67
2022/01/17 08:09:29;;;;;;;38.83;6.82;;;;;;;;;;5033476;28;20077;-67
2022/01/17 08:11:55;;;;;;;27.50;5.40;;;;;;;;;;5017031;28;20079;-67
2022/01/17 08:14:23;;;;;;;37.08;6.00;;;;;;;;;;5033549;28;20052;-67
2022/01/17 08:16:49;;;;;;;37.17;6.75;;;;;;;;;;5034579;28;20053;-67
2022/01/17 08:19:15;;;;;;;53.15;11.52;;;;;;;;;;5033266;28;20042;-67
2022/01/17 08:21:41;;;;;;;35.75;7.00;;;;;;;;;;5034862;28;20037;-67
2022/01/17 08:24:07;;;;;;;28.90;5.78;;;;;;;;;;5034534;28;20049;-67
2022/01/17 08:26:33;;;;;;;83.40;15.52;;;;;;;;;;5033343;28;20492;-67
2022/01/17 08:28:59;;;;;;;42.13;8.13;;;;;;;;;;5032959;28;20048;-67
2022/01/17 08:31:25;;;;;;;40.08;6.50;;;;;;;;;;5034214;28;20041;-66
2022/01/17 08:33:51;;;;;;;65.50;10.38;;;;;;;;;;5033039;28;20045;-66
2022/01/17 08:36:19;;;;;;;36.63;5.90;;;;;;;;;;5034268;28;20488;-66
2022/01/17 08:38:46;;;;;;;38.67;5.30;;;;;;;;;;5034551;28;20045;-66
2022/01/17 08:41:12;;;;;;;36.63;6.35;;;;;;;;;;5033129;28;20076;-66
2022/01/17 08:43:38;;;;;;;25.58;4.32;;;;;;;;;;5034183;28;20045;-67
2022/01/17 08:46:06;;;;;;;61.28;7.70;;;;;;;;;;5032654;28;20554;-68
2022/01/17 08:48:32;;;;;;;38.22;5.85;;;;;;;;;;5033921;28;20095;-67
2022/01/17 08:50:58;;;;;;;64.53;9.75;;;;;;;;;;5016298;28;20483;-67
2022/01/17 08:53:26;;;;;;;51.42;9.52;;;;;;;;;;5033155;28;20037;-67
2022/01/17 08:55:52;;;;;;;34.53;5.68;;;;;;;;;;5016692;28;20476;-67
2022/01/17 08:58:18;;;;;;;38.55;6.40;;;;;;;;;;5032802;28;20045;-67
2022/01/17 09:00:44;;;;;;;61.63;5.85;;;;;;;;;;5032566;28;20053;-68
2022/01/17 09:03:10;;;;;;;38.25;6.40;;;;;;;;;;5032580;28;20492;-67
2022/01/17 09:05:37;;;;;;;30.20;5.28;;;;;;;;;;5016231;28;20072;-68
2022/01/17 09:08:04;;;;;;;35.90;6.03;;;;;;;;;;5032125;28;20380;-67
2022/01/17 09:10:30;;;;;;;32.17;5.43;;;;;;;;;;5032340;28;20075;-67
2022/01/17 09:12:59;;;;;;;42.30;7.32;;;;;;;;;;5033874;28;20124;-67
2022/01/17 09:15:25;;;;;;;46.17;7.95;;;;;;;;;;5033725;28;20045;-67
2022/01/17 09:17:51;;;;;;;36.35;5.85;;;;;;;;;;5033781;28;20081;-67
2022/01/17 09:20:18;;;;;;;44.03;7.55;;;;;;;;;;5033359;28;20111;-67
2022/01/17 09:22:44;;;;;;;48.13;7.70;;;;;;;;;;5032070;28;20049;-67
2022/01/17 09:25:11;;;;;;;43.08;6.03;;;;;;;;;;5032086;28;20056;-67
2022/01/17 09:27:37;;;;;;;34.08;5.53;;;;;;;;;;5032134;28;20513;-67
2022/01/17 09:30:09;;;;;;;31.17;4.63;;;;;;;;;;5032143;28;20046;-67
2022/01/17 09:32:36;;;;;;;47.63;7.13;;;;;;;;;;5015705;28;20124;-67
2022/01/17 09:35:02;;;;;;;40.80;5.00;;;;;;;;;;5031704;28;20536;-67
2022/01/17 09:37:28;;;;;;;23.48;4.07;;;;;;;;;;5033427;28;20533;-67
2022/01/17 09:39:54;;;;;;;39.45;5.53;;;;;;;;;;5033269;28;20053;-67
2022/01/17 09:42:20;;;;;;;145.18;24.90;;;;;;;;;;5032304;28;20148;-67
2022/01/17 09:44:46;;;;;;;33.30;4.38;;;;;;;;;;5033125;28;20041;-67
2022/01/17 09:47:14;;;;;;;53.60;9.60;;;;;;;;;;5033199;28;20190;-67
2022/01/17 09:49:43;;;;;;;41.90;6.05;;;;;;;;;;5031810;28;20242;-67
2022/01/17 09:54:41;;;;;;;37.85;6.93;;;;;;;;;;5032410;28;20050;-67
2022/01/17 09:57:08;;;;;;;70.43;9.90;;;;;;;;;;5032995;28;20045;-67
2022/01/17 09:59:35;;;;;;;57.17;8.82;;;;;;;;;;5034765;28;20055;-68
2022/01/17 10:02:02;;;;;;;39.10;5.20;;;;;;;;;;5043780;28;20047;-67
2022/01/17 10:04:28;;;;;;;43.92;7.00;;;;;;;;;;5057837;28;20057;-66
2022/01/17 10:06:55;;;;;;;46.95;6.85;;;;;;;;;;5059403;28;20129;-67
2022/01/17 10:09:21;;;;;;;33.40;5.45;;;;;;;;;;5058068;28;20076;-67
2022/01/17 10:12:03;;;;;;;31.50;4.72;;;;;;;;;;5059916;28;20047;-66
2022/01/17 10:14:35;;;;;;;30.77;4.55;;;;;;;;;;5058206;28;20048;-67
2022/01/17 10:17:02;;;;;;;34.50;5.55;;;;;;;;;;5060175;28;20052;-66
2022/01/17 10:19:28;;;;;;;43.08;4.38;;;;;;;;;;5061552;28;20403;-66
2022/01/17 10:21:56;;;;;;;28.92;4.13;;;;;;;;;;5061109;28;20052;-66
2022/01/17 10:35:19;;;;;;;51.58;7.32;;;;;;;;;;5058924;28;20499;-67
2022/01/17 10:38:03;;;;;;;81.28;13.95;;;;;;;;;;5057792;28;20099;-67
2022/01/17 10:40:31;;;;;;;35.47;6.72;;;;;;;;;;5058960;28;20045;-67
2022/01/17 10:42:59;;;;;;;32.27;5.37;;;;;;;;;;5050179;28;20053;-68
2022/01/17 10:45:33;;;;;;;84.15;14.55;;;;;;;;;;5030455;28;20287;-68
2022/01/17 10:48:00;;;;;;;50.67;7.95;;;;;;;;;;5050714;28;20491;-68
2022/01/17 10:50:35;;;;;;;38.70;5.05;;;;;;;;;;5046705;28;20037;-68
2022/01/17 10:53:02;;;;;;;48.38;7.78;;;;;;;;;;5049362;28;20045;-68
2022/01/17 10:55:30;;;;;;;36.80;5.10;;;;;;;;;;5047585;28;20441;-67
2022/01/17 10:57:58;;;;;;;36.10;4.43;;;;;;;;;;5048050;28;20048;-66
2022/01/17 11:00:31;;;;;;;30.58;4.20;;;;;;;;;;5049235;28;20052;-66
2022/01/17 11:02:59;;;;;;;38.50;5.82;;;;;;;;;;5049936;28;20045;-68
2022/01/17 11:05:27;;;;;;;31.75;4.70;;;;;;;;;;5048883;28;20125;-67
2022/01/17 11:07:56;;;;;;;45.33;7.28;;;;;;;;;;5046147;28;20072;-66
2022/01/17 11:10:26;;;;;;;38.92;6.35;;;;;;;;;;5046261;28;20119;-67
2022/01/17 11:12:53;;;;;;;66.13;9.32;;;;;;;;;;5045326;28;20069;-67
2022/01/17 11:15:19;;;;;;;42.58;7.55;;;;;;;;;;5017944;28;20049;-67
2022/01/17 11:17:51;;;;;;;38.00;6.57;;;;;;;;;;5035687;28;20042;-67
2022/01/17 11:20:18;;;;;;;35.13;6.10;;;;;;;;;;5035800;28;20569;-66
2022/01/17 11:22:46;;;;;;;48.90;7.63;;;;;;;;;;5034367;28;20045;-67
2022/01/17 11:25:14;;;;;;;60.10;8.80;;;;;;;;;;5034361;28;20060;-67
2022/01/17 11:27:40;;;;;;;49.10;8.55;;;;;;;;;;5017870;28;20108;-67
2022/01/17 11:30:07;;;;;;;33.83;5.40;;;;;;;;;;5035437;28;20564;-66
2022/01/17 11:32:33;;;;;;;29.08;4.55;;;;;;;;;;5034105;28;20045;-66
2022/01/17 11:35:00;;;;;;;43.25;6.32;;;;;;;;;;5033899;28;20411;-66
2022/01/17 11:37:27;;;;;;;52.22;8.07;;;;;;;;;;5035600;28;20457;-65
2022/01/17 11:39:57;;;;;;;72.25;11.60;;;;;;;;;;5035394;28;20041;-65
2022/01/17 11:42:40;;;;;;;28.63;4.38;;;;;;;;;;5034255;28;20527;-65
2022/01/17 11:45:21;;;;;;;44.67;7.18;;;;;;;;;;5036220;28;20505;-66
2022/01/17 11:47:52;;;;;;;36.25;4.88;;;;;;;;;;5036621;28;20045;-65
2022/01/17 11:50:40;;;;;;;30.30;5.45;;;;;;;;;;5035278;28;20044;-65
2022/01/17 11:53:12;;;;;;;52.45;8.68;;;;;;;;;;5036483;28;20105;-65
2022/01/17 11:55:44;;;;;;;41.70;6.70;;;;;;;;;;5037290;28;20124;-66
2022/01/17 11:58:24;;;;;;;41.28;6.07;;;;;;;;;;5036503;28;20053;-67
2022/01/17 12:00:59;;;;;;;49.78;8.00;;;;;;;;;;5019684;28;20576;-67
2022/01/17 12:03:41;;;;;;;56.78;9.15;;;;;;;;;;5036870;28;20157;-67
2022/01/17 12:06:18;;;;;;;49.95;8.05;;;;;;;;;;5037893;28;20072;-66
2022/01/17 12:08:44;;;;;;;47.92;8.73;;;;;;;;;;5046267;28;20056;-66
2022/01/17 12:11:24;;;;;;;43.47;6.78;;;;;;;;;;5046811;28;20052;-67
2022/01/17 12:13:50;;;;;;;36.63;5.18;;;;;;;;;;5056214;28;20454;-66
2022/01/17 12:16:26;;;;;;;29.17;4.05;;;;;;;;;;5051231;28;20063;-66
2022/01/17 12:18:58;;;;;;;61.85;10.35;;;;;;;;;;5027122;28;20046;-66
2022/01/17 12:21:28;;;;;;;46.53;6.97;;;;;;;;;;5043606;28;20053;-67
2022/01/17 12:24:13;;;;;;;48.15;8.15;;;;;;;;;;5048443;28;20048;-67
2022/01/17 12:26:39;;;;;;;41.47;6.93;;;;;;;;;;5073625;28;20099;-66
2022/01/17 12:29:05;;;;;;;35.47;4.68;;;;;;;;;;5039744;28;20041;-67
2022/01/17 12:31:39;;;;;;;47.47;8.55;;;;;;;;;;5064470;28;20036;-67
2022/01/17 12:34:25;;;;;;;43.88;6.63;;;;;;;;;;5066658;28;20053;-67
2022/01/17 12:36:52;;;;;;;47.20;5.97;;;;;;;;;;5065991;28;20056;-67
2022/01/17 12:39:19;;;;;;;45.25;6.80;;;;;;;;;;5066182;28;20064;-64
2022/01/17 12:41:47;;;;;;;31.13;5.10;;;;;;;;;;5065348;28;20124;-66
2022/01/17 12:44:15;;;;;;;40.35;6.25;;;;;;;;;;5050402;28;20059;-66
2022/01/17 12:46:45;;;;;;;40.30;7.18;;;;;;;;;;5049803;28;20064;-67
2022/01/17 12:49:11;;;;;;;50.30;7.18;;;;;;;;;;5068630;28;20033;-67
2022/01/17 12:51:42;;;;;;;37.60;6.22;;;;;;;;;;5067077;28;20045;-66
2022/01/17 12:54:16;;;;;;;29.85;3.88;;;;;;;;;;5065619;28;20131;-66
2022/01/17 12:56:47;;;;;;;25.17;3.65;;;;;;;;;;5049008;28;20049;-67
2022/01/17 12:59:15;;;;;;;27.10;4.25;;;;;;;;;;5049132;28;20048;-66
2022/01/17 13:01:45;;;;;;;24.02;4.35;;;;;;;;;;5065544;28;20073;-67
2022/01/17 13:04:12;;;;;;;25.10;4.35;;;;;;;;;;5065234;28;20079;-66
2022/01/17 13:06:41;;;;;;;35.90;5.68;;;;;;;;;;5047379;28;20041;-66
2022/01/17 13:09:20;;;;;;;42.83;8.00;;;;;;;;;;5064969;28;20045;-67
2022/01/17 13:11:46;;;;;;;;;;;;;;;;;;5067817;28;20084;-67
2022/01/17 13:14:20;;;;;;;25.45;3.70;;;;;;;;;;5049050;28;19920;-67
2022/01/17 13:16:47;;;;;;;24.40;3.40;;;;;;;;;;5065370;28;20065;-67
2022/01/17 13:19:14;;;;;;;28.85;5.15;;;;;;;;;;5067742;28;20064;-68
2022/01/17 13:21:42;;;;;;;38.45;5.20;;;;;;;;;;5062300;28;20053;-67
2022/01/17 13:24:14;;;;;;;34.17;5.20;;;;;;;;;;5062780;28;20055;-66
2022/01/17 13:26:42;;;;;;;29.75;3.90;;;;;;;;;;5063992;28;20052;-66
2022/01/17 13:29:09;;;;;;;32.78;5.55;;;;;;;;;;5065804;28;20060;-66
2022/01/17 13:31:35;;;;;;;36.50;5.25;;;;;;;;;;5065632;28;20129;-66
2022/01/17 13:34:30;;;;;;;39.90;5.95;;;;;;;;;;5063749;28;20045;-66
2022/01/17 13:37:01;;;;;;;38.55;5.15;;;;;;;;;;5061209;28;20103;-66
2022/01/17 13:39:27;;;;;;;43.58;6.32;;;;;;;;;;5064425;28;20041;-66
2022/01/17 13:41:54;;;;;;;37.35;7.10;;;;;;;;;;5065209;28;20045;-67
2022/01/17 13:44:21;;;;;;;33.80;5.80;;;;;;;;;;5065396;28;20052;-66
2022/01/17 13:47:21;;;;;;;51.97;10.13;;;;;;;;;;5066037;28;20495;-66
2022/01/17 13:49:50;;;;;;;48.42;8.13;;;;;;;;;;5043565;28;20130;-65
2022/01/17 13:52:18;;;;;;;26.20;4.55;;;;;;;;;;5067063;28;20040;-67
2022/01/17 13:54:50;;;;;;;22.88;4.57;;;;;;;;;;5064935;28;20077;-66
2022/01/17 13:57:21;;;;;;;21.00;3.60;;;;;;;;;;5048396;28;20533;-65
2022/01/17 14:00:01;;;;;;;28.83;4.35;;;;;;;;;;5049499;28;20056;-66
2022/01/17 14:02:35;;;;;;;29.65;5.68;;;;;;;;;;5063336;28;20514;-66
2022/01/17 14:05:01;;;;;;;35.15;5.63;;;;;;;;;;5065963;28;20052;-65
2022/01/17 14:07:28;;;;;;;35.95;5.78;;;;;;;;;;5062912;28;20128;-66
2022/01/17 14:09:54;;;;;;;28.85;5.18;;;;;;;;;;5047418;28;20407;-66
2022/01/17 14:12:23;;;;;;;47.53;7.97;;;;;;;;;;5047273;28;20119;-66
2022/01/17 14:14:54;;;;;;;34.80;6.28;;;;;;;;;;5046654;28;20052;-66
2022/01/17 14:17:28;;;;;;;38.38;5.53;;;;;;;;;;5057134;28;20044;-66
2022/01/17 14:19:54;;;;;;;39.88;7.13;;;;;;;;;;5062960;28;20048;-67
2022/01/17 14:22:21;;;;;;;39.85;5.20;;;;;;;;;;5066608;28;20049;-67
2022/01/17 14:24:48;;;;;;;49.78;7.70;;;;;;;;;;5066002;28;20049;-67
2022/01/17 14:27:18;;;;;;;46.42;6.22;;;;;;;;;;5064325;28;20106;-66
2022/01/17 14:30:06;;;;;;;27.40;4.15;;;;;;;;;;5063631;28;20045;-67
2022/01/17 14:32:32;;;;;;;29.98;5.00;;;;;;;;;;5065358;28;20060;-67
2022/01/17 14:34:59;;;;;;;38.58;5.80;;;;;;;;;;5045706;28;20415;-67
2022/01/17 14:37:27;;;;;;;40.92;5.80;;;;;;;;;;5063962;28;20047;-67
2022/01/17 14:40:06;;;;;;;82.80;12.80;;;;;;;;;;5064586;28;20048;-66
2022/01/17 14:42:36;;;;;;;27.60;4.03;;;;;;;;;;5067908;28;20106;-67
2022/01/17 14:45:05;;;;;;;26.83;4.78;;;;;;;;;;5066840;28;20498;-68
2022/01/17 14:47:37;;;;;;;22.33;3.70;;;;;;;;;;5051060;28;20048;-67
2022/01/17 14:50:03;;;;;;;28.75;5.85;;;;;;;;;;5067752;28;20045;-67
2022/01/17 14:52:31;;;;;;;25.15;4.18;;;;;;;;;;5067867;28;20049;-67
2022/01/17 15:00:21;;;;;;;39.95;5.72;;;;;;;;;;5059499;28;20128;-67
2022/01/17 15:02:59;;;;;;;40.85;6.22;;;;;;;;;;5059273;28;20055;-67
2022/01/17 15:05:26;;;;;;;29.92;4.45;;;;;;;;;;5063309;28;20075;-67
2022/01/17 15:07:52;;;;;;;37.95;5.75;;;;;;;;;;5039941;28;20403;-67
2022/01/17 15:10:19;;;;;;;31.92;4.07;;;;;;;;;;5054781;28;20053;-67